Time;durP1;ratioP1;P1;durP2;ratioP2;P2;SDS_P1;SDS_P2;PMS_P1;PMS_P2;Temp;Humidity;BMP_temperature;BMP_pressure;BME280_temperature;BME280_humidity;BME280_pressure;Samples;Min_cycle;Max_cycle;Signal;HPM_P1;HPM_P2
2022/09/13 00:01:52;;;;;;;;;;;;;;;16.22;100.00;100976.06;5047065;28;19979;-72
2022/09/13 00:04:17;;;;;;;;;;;;;;;16.20;100.00;100969.13;5048772;28;19927;-71
2022/09/13 00:06:43;;;;;;;;;;;;;;;16.17;100.00;100962.16;5047438;28;19943;-72
2022/09/13 00:09:08;;;;;;;;;;;;;;;16.15;100.00;100961.41;5050488;28;19932;-72
2022/09/13 00:11:33;;;;;;;;;;;;;;;16.13;100.00;100956.16;5051421;28;19924;-72
2022/09/13 00:13:59;;;;;;;;;;;;;;;16.13;100.00;100955.34;5049658;28;20412;-72
2022/09/13 00:16:25;;;;;;;;;;;;;;;16.14;100.00;100951.69;5046326;28;19928;-72
2022/09/13 00:18:51;;;;;;;;;;;;;;;16.15;100.00;100953.41;5049251;28;19924;-71
2022/09/13 00:21:17;;;;;;;;;;;;;;;16.17;100.00;100950.63;5031469;28;21458;-71
2022/09/13 00:23:43;;;;;;;;;;;;;;;16.16;100.00;100947.09;5046931;28;19928;-72
2022/09/13 00:26:10;;;;;;;;;;;;;;;16.18;100.00;100947.00;5050088;28;19924;-72
2022/09/13 00:28:36;;;;;;;;;;;;;;;16.19;100.00;100938.03;5046328;28;19936;-72
2022/09/13 00:31:04;;;;;;;;;;;;;;;16.22;100.00;100937.81;5044322;28;19928;-72
2022/09/13 00:33:29;;;;;;;;;;;;;;;16.24;100.00;100942.09;5050387;28;20571;-73
2022/09/13 00:35:55;;;;;;;;;;;;;;;16.25;100.00;100937.63;5032962;28;19932;-73
2022/09/13 00:38:21;;;;;;;;;;;;;;;16.27;100.00;100930.34;5049361;28;19940;-73
2022/09/13 00:40:46;;;;;;;;;;;;;;;16.28;100.00;100926.69;5047107;28;19928;-72
2022/09/13 00:43:15;;;;;;;;;;;;;;;16.29;100.00;100928.44;5032527;28;20079;-72
2022/09/13 00:45:41;;;;;;;;;;;;;;;16.31;100.00;100922.97;5044056;28;20409;-72
2022/09/13 00:48:06;;;;;;;;;;;;;;;16.31;100.00;100920.31;5032297;28;19936;-72
2022/09/13 00:50:33;;;;;;;;;;;;;;;16.31;100.00;100918.50;5046267;28;20628;-73
2022/09/13 00:53:06;;;;;;;;;;;;;;;16.32;100.00;100917.53;5046979;28;19979;-72
2022/09/13 00:55:39;;;;;;;;;;;;;;;16.34;100.00;100917.44;5046892;28;20288;-73
2022/09/13 00:58:05;;;;;;;;;;;;;;;16.34;100.00;100915.59;5047480;28;20019;-73
2022/09/13 01:00:30;;;;;;;;;;;;;;;16.34;100.00;100910.25;5042596;28;19986;-73
2022/09/13 01:02:57;;;;;;;;;;;;;;;16.35;100.00;100914.63;5047387;28;20030;-71
2022/09/13 01:05:24;;;;;;;;;;;;;;;16.35;100.00;100917.31;5047693;28;19928;-72
2022/09/13 01:07:50;;;;;;;;;;;;;;;16.36;100.00;100907.50;5048477;28;19989;-72
2022/09/13 01:10:15;;;;;;;;;;;;;;;16.36;100.00;100900.34;5048703;28;19932;-72
2022/09/13 01:12:47;;;;;;;;;;;;;;;16.38;100.00;100910.91;5047581;28;20422;-71
2022/09/13 01:15:12;;;;;;;;;;;;;;;16.39;100.00;100908.13;5049302;28;19929;-72
2022/09/13 01:17:38;;;;;;;;;;;;;;;16.39;100.00;100901.91;5050220;28;20445;-73
2022/09/13 01:20:04;;;;;;;;;;;;;;;16.38;100.00;100895.75;5033300;28;19957;-73
2022/09/13 01:22:48;;;;;;;;;;;;;;;16.40;100.00;100885.78;5048297;28;19928;-73
2022/09/13 01:25:40;;;;;;;;;;;;;;;16.39;100.00;100886.75;5049898;28;20700;-73
2022/09/13 01:28:09;;;;;;;;;;;;;;;16.39;100.00;100886.75;5029139;28;19963;-73
2022/09/13 01:30:37;;;;;;;;;;;;;;;16.38;100.00;100882.38;5048433;28;20348;-72
2022/09/13 01:33:09;;;;;;;;;;;;;;;16.39;100.00;100876.06;5047846;28;20042;-73
2022/09/13 01:35:39;;;;;;;;;;;;;;;16.40;100.00;100875.09;5048285;28;20452;-73
2022/09/13 01:38:23;;;;;;;;;;;;;;;16.41;100.00;100878.66;5046386;28;20355;-73
2022/09/13 01:41:00;;;;;;;;;;;;;;;16.41;100.00;100879.47;5050896;28;19928;-72
2022/09/13 01:43:34;;;;;;;;;;;;;;;16.40;100.00;100871.59;5052200;28;20035;-72
2022/09/13 01:46:04;;;;;;;;;;;;;;;16.40;100.00;100872.44;5047084;28;19925;-72
2022/09/13 01:48:35;;;;;;;;;;;;;;;16.40;100.00;100880.44;5049058;28;19929;-72
2022/09/13 01:51:03;;;;;;;;;;;;;;;16.41;100.00;100878.66;5050065;28;20136;-72
2022/09/13 01:53:31;;;;;;;;;;;;;;;16.40;100.00;100885.78;5049250;28;19925;-73
2022/09/13 01:56:02;;;;;;;;;;;;;;;16.41;100.00;100884.00;5050300;28;19932;-72
2022/09/13 01:58:29;;;;;;;;;;;;;;;16.39;100.00;100881.41;5050746;28;19924;-72
2022/09/13 02:01:07;;;;;;;;;;;;;;;16.41;100.00;100876.81;5044206;28;20556;-72
2022/09/13 02:03:35;;;;;;;;;;;;;;;16.43;100.00;100876.72;5051490;28;19928;-72
2022/09/13 02:06:02;;;;;;;;;;;;;;;16.43;100.00;100876.72;5048623;28;19932;-71
2022/09/13 02:08:38;;;;;;;;;;;;;;;16.43;100.00;100866.91;5034235;28;20470;-73
2022/09/13 02:11:06;;;;;;;;;;;;;;;16.43;100.00;100858.00;5050800;28;21863;-73
2022/09/13 02:13:34;;;;;;;;;;;;;;;16.43;100.00;100860.69;5050435;28;19936;-73
2022/09/13 02:16:01;;;;;;;;;;;;;;;16.43;100.00;100864.22;5050198;28;19924;-73
2022/09/13 02:18:32;;;;;;;;;;;;;;;16.43;100.00;100866.03;5051495;28;20038;-74
2022/09/13 02:20:59;;;;;;;;;;;;;;;16.43;100.00;100869.56;5027271;28;19971;-74
2022/09/13 02:23:37;;;;;;;;;;;;;;;16.46;100.00;100864.97;5050489;28;20429;-73
2022/09/13 02:26:03;;;;;;;;;;;;;;;16.46;100.00;100864.97;5050944;28;19935;-73
2022/09/13 02:28:33;;;;;;;;;;;;;;;16.47;100.00;100859.50;5048434;28;19928;-73
2022/09/13 02:30:58;;;;;;;;;;;;;;;16.50;100.00;100856.63;5040400;28;20171;-74
2022/09/13 02:33:25;;;;;;;;;;;;;;;16.52;100.00;100861.84;5050262;28;20346;-74
2022/09/13 02:36:01;;;;;;;;;;;;;;;16.55;100.00;100867.84;5025276;28;20164;-74
2022/09/13 02:38:29;;;;;;;;;;;;;;;16.58;100.00;100871.25;5045928;28;19929;-74
2022/09/13 02:40:59;;;;;;;;;;;;;;;16.62;100.00;100870.91;5050619;28;19928;-73
2022/09/13 02:43:39;;;;;;;;;;;;;;;16.65;100.00;100870.72;5038817;28;19931;-73
2022/09/13 02:46:08;;;;;;;;;;;;;;;16.67;100.00;100884.81;5037151;28;19924;-74
2022/09/13 02:48:35;;;;;;;;;;;;;;;16.68;100.00;100881.19;5034579;28;19925;-74
2022/09/13 02:51:13;;;;;;;;;;;;;;;16.57;100.00;100889.13;5015005;28;19925;-73
2022/09/13 02:53:44;;;;;;;;;;;;;;;16.43;100.00;100882.94;5054038;28;20037;-73
2022/09/13 02:56:10;;;;;;;;;;;;;;;16.35;100.00;100879.06;5050296;28;19928;-73
2022/09/13 02:58:56;;;;;;;;;;;;;;;16.27;100.00;100882.25;5052777;28;19970;-73
2022/09/13 03:01:21;;;;;;;;;;;;;;;16.24;100.00;100893.16;5032798;28;19959;-74
2022/09/13 03:03:46;;;;;;;;;;;;;;;16.21;100.00;100896.03;5051189;28;20494;-73
2022/09/13 03:06:12;;;;;;;;;;;;;;;16.15;100.00;100895.53;5051974;28;19939;-73
2022/09/13 03:08:37;;;;;;;;;;;;;;;16.11;100.00;100886.00;5035484;28;19936;-74
2022/09/13 03:11:14;;;;;;;;;;;;;;;16.09;100.00;100887.06;5053295;28;20651;-73
2022/09/13 03:13:55;;;;;;;;;;;;;;;16.10;100.00;100891.44;5050761;28;19931;-73
2022/09/13 03:16:36;;;;;;;;;;;;;;;16.09;100.00;100889.72;5049539;28;19928;-73
2022/09/13 03:19:08;;;;;;;;;;;;;;;16.09;100.00;100901.28;5035033;28;19928;-73
2022/09/13 03:21:46;;;;;;;;;;;;;;;16.10;100.00;100897.63;5049567;28;19928;-73
2022/09/13 03:24:14;;;;;;;;;;;;;;;16.12;100.00;100895.72;5053939;28;19924;-73
2022/09/13 03:26:41;;;;;;;;;;;;;;;16.12;100.00;100901.06;5067851;28;20181;-73
2022/09/13 03:29:12;;;;;;;;;;;;;;;16.10;100.00;100908.31;5051370;28;20272;-74
2022/09/13 03:31:37;;;;;;;;;;;;;;;16.11;100.00;100914.50;5049864;28;20421;-74
2022/09/13 03:34:06;;;;;;;;;;;;;;;16.11;100.00;100909.16;5049427;28;19921;-74
2022/09/13 03:36:50;;;;;;;;;;;;;;;16.10;100.00;100913.66;5051246;28;19936;-74
2022/09/13 03:39:16;;;;;;;;;;;;;;;16.10;100.00;100907.44;5051171;28;20295;-74
2022/09/13 03:41:43;;;;;;;;;;;;;;;16.09;100.00;100906.63;5054063;28;19923;-73
2022/09/13 03:44:09;;;;;;;;;;;;;;;16.10;100.00;100911.00;5048598;28;19929;-73
2022/09/13 03:46:42;;;;;;;;;;;;;;;16.10;100.00;100897.63;5047862;28;19924;-73
2022/09/13 03:49:08;;;;;;;;;;;;;;;16.11;100.00;100904.69;5048876;28;19944;-73
2022/09/13 03:51:33;;;;;;;;;;;;;;;16.10;100.00;100894.97;5047151;28;20022;-73
2022/09/13 03:54:01;;;;;;;;;;;;;;;16.09;100.00;100906.63;5047080;28;19932;-74
2022/09/13 03:56:26;;;;;;;;;;;;;;;16.09;100.00;100911.97;5049720;28;19924;-74
2022/09/13 03:58:52;;;;;;;;;;;;;;;16.11;100.00;100915.38;5046734;28;19944;-74
2022/09/13 04:01:18;;;;;;;;;;;;;;;16.10;100.00;100921.69;5032185;28;20390;-74
2022/09/13 04:03:44;;;;;;;;;;;;;;;16.11;100.00;100920.72;5065515;28;20314;-74
2022/09/13 04:06:09;;;;;;;;;;;;;;;16.12;100.00;100916.25;5049214;28;19933;-74
2022/09/13 04:08:34;;;;;;;;;;;;;;;16.11;100.00;100915.38;5046055;28;20482;-74
2022/09/13 04:11:00;;;;;;;;;;;;;;;16.11;100.00;100912.69;5048345;28;20386;-73
2022/09/13 04:13:25;;;;;;;;;;;;;;;16.13;100.00;100912.59;5031003;28;19985;-74
2022/09/13 04:15:51;;;;;;;;;;;;;;;16.12;100.00;100914.41;5044138;28;20218;-74
2022/09/13 04:18:16;;;;;;;;;;;;;;;16.13;100.00;100918.78;5048037;28;19940;-74
2022/09/13 04:20:42;;;;;;;;;;;;;;;16.13;100.00;100917.94;5048129;28;19928;-74
2022/09/13 04:23:07;;;;;;;;;;;;;;;16.12;100.00;100922.41;5048559;28;19935;-74
2022/09/13 04:25:32;;;;;;;;;;;;;;;16.11;100.00;100923.38;5049364;28;20035;-74
2022/09/13 04:28:01;;;;;;;;;;;;;;;16.11;100.00;100920.72;5033064;28;20497;-74
2022/09/13 04:30:27;;;;;;;;;;;;;;;16.11;100.00;100923.38;5049869;28;19935;-74
2022/09/13 04:32:53;;;;;;;;;;;;;;;16.11;100.00;100930.53;5047786;28;20507;-74
2022/09/13 04:35:18;;;;;;;;;;;;;;;16.09;100.00;100916.44;5049708;28;20280;-74
2022/09/13 04:37:44;;;;;;;;;;;;;;;16.06;100.00;100922.00;5047714;28;19982;-74
2022/09/13 04:40:10;;;;;;;;;;;;;;;16.03;100.00;100917.72;5046898;28;20467;-74
2022/09/13 04:42:37;;;;;;;;;;;;;;;15.99;100.00;100924.22;5045510;28;20315;-74
2022/09/13 04:45:03;;;;;;;;;;;;;;;15.98;100.00;100925.16;5044345;28;20062;-74
2022/09/13 04:47:28;;;;;;;;;;;;;;;15.94;100.00;100924.53;5047552;28;19928;-74
2022/09/13 04:49:54;;;;;;;;;;;;;;;15.92;100.00;100925.56;5044874;28;19968;-74
2022/09/13 04:52:19;;;;;;;;;;;;;;;15.89;100.00;100926.59;5044849;28;19917;-74
2022/09/13 04:54:46;;;;;;;;;;;;;;;15.86;100.00;100922.31;5046331;28;19936;-74
2022/09/13 04:57:12;;;;;;;;;;;;;;;15.84;100.00;100932.25;5048171;28;19982;-73
2022/09/13 04:59:38;;;;;;;;;;;;;;;15.81;100.00;100923.59;5047530;28;19932;-73
2022/09/13 05:02:03;;;;;;;;;;;;;;;15.81;100.00;100924.47;5045765;28;19932;-73
2022/09/13 05:04:28;;;;;;;;;;;;;;;15.79;100.00;100923.69;5047383;28;19982;-73
2022/09/13 05:06:54;;;;;;;;;;;;;;;15.77;100.00;100925.63;5048347;28;20073;-73
2022/09/13 05:09:19;;;;;;;;;;;;;;;15.78;100.00;100931.78;5049511;28;19932;-73
2022/09/13 05:11:45;;;;;;;;;;;;;;;15.77;100.00;100927.41;5046467;28;19932;-73
2022/09/13 05:14:10;;;;;;;;;;;;;;;15.77;100.00;100917.59;5046086;28;19944;-74
2022/09/13 05:16:36;;;;;;;;;;;;;;;15.75;100.00;100922.19;5049770;28;20814;-73
2022/09/13 05:19:01;;;;;;;;;;;;;;;15.75;100.00;100919.53;5034610;28;19928;-73
2022/09/13 05:21:27;;;;;;;;;;;;;;;15.76;100.00;100931.91;5049104;28;19950;-72
2022/09/13 05:23:53;;;;;;;;;;;;;;;15.77;100.00;100944.28;5047343;28;19975;-73
2022/09/13 05:26:18;;;;;;;;;;;;;;;15.77;100.00;100943.41;5045482;28;20009;-73
2022/09/13 05:28:43;;;;;;;;;;;;;;;15.75;100.00;100938.22;5027043;28;19933;-72
2022/09/13 05:31:11;;;;;;;;;;;;;;;15.75;100.00;100943.53;5028034;28;20391;-73
2022/09/13 05:33:37;;;;;;;;;;;;;;;15.74;100.00;100945.34;5045948;28;20026;-75
2022/09/13 05:36:03;;;;;;;;;;;;;;;15.76;100.00;100947.94;5047627;28;19981;-73
2022/09/13 05:38:28;;;;;;;;;;;;;;;15.78;100.00;100948.66;5032425;28;20353;-73
2022/09/13 05:40:55;;;;;;;;;;;;;;;15.79;100.00;100946.88;5047663;28;19932;-73
2022/09/13 05:43:22;;;;;;;;;;;;;;;15.82;100.00;100949.31;5045993;28;20023;-74
2022/09/13 05:45:47;;;;;;;;;;;;;;;15.83;100.00;100951.03;5044356;28;20051;-74
2022/09/13 05:48:13;;;;;;;;;;;;;;;15.84;100.00;100945.59;5046376;28;19928;-73
2022/09/13 05:50:38;;;;;;;;;;;;;;;15.86;100.00;100954.34;5049862;28;20019;-73
2022/09/13 05:53:04;;;;;;;;;;;;;;;15.86;100.00;100959.69;5048440;28;19932;-73
2022/09/13 05:55:30;;;;;;;;;;;;;;;15.88;100.00;100955.13;5050227;28;19928;-73
2022/09/13 05:57:55;;;;;;;;;;;;;;;15.89;100.00;100961.31;5046945;28;19990;-73
2022/09/13 06:00:20;;;;;;;;;;;;;;;15.89;100.00;100961.31;5049794;28;19939;-73
2022/09/13 06:02:46;;;;;;;;;;;;;;;15.91;100.00;100963.88;5036957;28;19939;-72
2022/09/13 06:05:11;;;;;;;;;;;;;;;15.93;100.00;100970.00;5050878;28;20031;-72
2022/09/13 06:07:40;;;;;;;;;;;;;;;15.95;100.00;100978.78;5016907;28;20410;-73
2022/09/13 06:10:06;;;;;;;;;;;;;;;15.95;100.00;100968.94;5049697;28;19932;-72
2022/09/13 06:12:32;;;;;;;;;;;;;;;15.96;100.00;100965.31;5046440;28;19940;-73
2022/09/13 06:14:57;;;;;;;;;;;;;;;16.00;100.00;100971.31;5022751;28;19928;-73
2022/09/13 06:17:23;;;;;;;;;;;;;;;16.01;100.00;100981.03;5046768;28;19929;-73
2022/09/13 06:19:48;;;;;;;;;;;;;;;16.04;100.00;100978.16;5039821;28;19928;-73
2022/09/13 06:22:14;;;;;;;;;;;;;;;16.06;100.00;100978.91;5043047;28;19940;-73
2022/09/13 06:24:39;;;;;;;;;;;;;;;16.10;100.00;100983.09;5046072;28;20239;-74
2022/09/13 06:27:05;;;;;;;;;;;;;;;16.11;100.00;100984.81;5051674;28;19963;-74
2022/09/13 06:29:30;;;;;;;;;;;;;;;16.14;100.00;100981.91;5048730;28;19928;-75
2022/09/13 06:31:55;;;;;;;;;;;;;;;16.18;100.00;100979.06;5030370;28;20532;-75
2022/09/13 06:34:21;;;;;;;;;;;;;;;16.20;100.00;100983.34;5047443;28;20031;-75
2022/09/13 06:36:46;;;;;;;;;;;;;;;16.23;100.00;100987.63;5050623;28;20235;-74
2022/09/13 06:39:12;;;;;;;;;;;;;;;16.26;100.00;100984.72;5049663;28;20387;-74
2022/09/13 06:41:37;;;;;;;;;;;;;;;16.28;100.00;100990.81;5048186;28;19932;-75
2022/09/13 06:44:03;;;;;;;;;;;;;;;16.26;100.00;100987.41;5046139;28;19958;-74
2022/09/13 06:46:29;;;;;;;;;;;;;;;16.29;100.00;100981.88;5050367;28;20142;-74
2022/09/13 06:48:56;;;;;;;;;;;;;;;16.32;100.00;100989.66;5051331;28;19920;-74
2022/09/13 06:51:22;;;;;;;;;;;;;;;16.32;100.00;100988.78;5050123;28;19983;-74
2022/09/13 06:53:48;;;;;;;;;;;;;;;16.34;100.00;100993.06;5018213;28;20019;-74
2022/09/13 06:56:15;;;;;;;;;;;;;;;16.33;100.00;100991.38;5046970;28;20445;-74
2022/09/13 06:58:41;;;;;;;;;;;;;;;16.32;100.00;100992.34;5049787;28;19928;-74
2022/09/13 07:01:14;;;;;;;;;;;;;;;16.31;100.00;100990.63;5049874;28;19931;-74
2022/09/13 07:03:49;;;;;;;;;;;;;;;16.27;100.00;100976.63;5048952;28;19932;-75
2022/09/13 07:06:19;;;;;;;;;;;;;;;16.31;100.00;100985.28;5034556;28;19936;-74
2022/09/13 07:08:45;;;;;;;;;;;;;;;16.35;100.00;100981.44;5050359;28;20413;-72
2022/09/13 07:11:11;;;;;;;;;;;;;;;16.36;100.00;100982.28;5032047;28;19928;-75
2022/09/13 07:13:36;;;;;;;;;;;;;;;16.39;100.00;100987.41;5051568;28;20414;-75
2022/09/13 07:16:03;;;;;;;;;;;;;;;16.41;100.00;100989.03;5035044;28;19971;-74
2022/09/13 07:18:28;;;;;;;;;;;;;;;16.41;100.00;100994.38;5046840;28;19929;-74
2022/09/13 07:20:59;;;;;;;;;;;;;;;16.40;100.00;101000.69;5055727;28;19982;-72
2022/09/13 07:23:24;;;;;;;;;;;;;;;16.40;100.00;100994.50;5063121;28;19955;-71
2022/09/13 07:25:53;;;;;;;;;;;;;;;16.44;100.00;100993.31;5050021;28;20402;-71
2022/09/13 07:28:19;;;;;;;;;;;;;;;16.47;100.00;101000.25;5053018;28;20005;-71
2022/09/13 07:30:44;;;;;;;;;;;;;;;16.48;100.00;100997.50;5051423;28;20345;-72
2022/09/13 07:33:10;;;;;;;;;;;;;;;16.51;100.00;101004.44;5052519;28;19956;-72
2022/09/13 07:35:35;;;;;;;;;;;;;;;16.53;100.00;101000.72;5048895;28;19933;-72
2022/09/13 07:38:00;;;;;;;;;;;;;;;16.57;100.00;101009.38;5048334;28;19933;-74
2022/09/13 07:40:26;;;;;;;;;;;;;;;16.63;100.00;101008.97;5049513;28;19928;-75
2022/09/13 07:42:51;;;;;;;;;;;;;;;16.66;100.00;101011.41;5014809;28;20311;-74
2022/09/13 07:45:16;;;;;;;;;;;;;;;16.69;100.00;101011.19;5063338;28;19948;-75
2022/09/13 07:47:43;;;;;;;;;;;;;;;16.73;100.00;101013.66;5049803;28;19939;-75
2022/09/13 07:50:08;;;;;;;;;;;;;;;16.77;100.00;101008.00;5048912;28;19955;-75
2022/09/13 07:52:36;;;;;;;;;;;;;;;16.80;100.00;101013.16;5048180;28;20370;-74
2022/09/13 07:55:02;;;;;;;;;;;;;;;16.84;100.00;101008.44;5045792;28;20032;-74
2022/09/13 07:57:28;;;;;;;;;;;;;;;16.87;100.00;101010.88;5057491;28;19932;-74
2022/09/13 07:59:54;;;;;;;;;;;;;;;16.90;100.00;101018.72;5046007;28;19933;-74
2022/09/13 08:02:19;;;;;;;;;;;;;;;16.96;100.00;101023.59;5048558;28;19929;-73
2022/09/13 08:04:44;;;;;;;;;;;;;;;16.97;100.00;101022.66;5049031;28;19928;-74
2022/09/13 08:07:10;;;;;;;;;;;;;;;16.94;100.00;101022.84;5040706;28;20268;-74
2022/09/13 08:09:35;;;;;;;;;;;;;;;16.94;100.00;101030.03;5040952;28;19951;-74
2022/09/13 08:12:01;;;;;;;;;;;;;;;16.99;100.00;101027.03;5042523;28;19932;-74
2022/09/13 08:14:26;;;;;;;;;;;;;;;17.03;100.00;101018.72;5042868;28;19974;-73
2022/09/13 08:16:55;;;;;;;;;;;;;;;17.05;100.00;101034.66;5043075;28;19932;-72
2022/09/13 08:19:21;;;;;;;;;;;;;;;17.02;100.00;101037.53;5045753;28;20451;-71
2022/09/13 08:21:46;;;;;;;;;;;;;;;16.97;100.00;101040.50;5045063;28;20034;-73
2022/09/13 08:24:16;;;;;;;;;;;;;;;16.93;100.00;101044.34;5029304;28;21082;-72
2022/09/13 08:26:41;;;;;;;;;;;;;;;17.01;100.00;101042.03;5038003;28;19936;-72
2022/09/13 08:29:07;;;;;;;;;;;;;;;17.14;100.00;101039.38;5025809;28;19928;-72
2022/09/13 08:31:33;;;;;;;;;;;;;;;17.29;100.00;101044.59;5041541;28;19932;-73
2022/09/13 08:33:58;;;;;;;;;;;;;;;17.35;100.00;101049.50;5044576;28;19939;-73
2022/09/13 08:36:24;;;;;;;;;;;;;;;17.37;100.00;101048.44;5035682;28;19924;-73
2022/09/13 08:38:51;;;;;;;;;;;;;;;17.37;100.00;101048.44;5034984;28;19947;-74
2022/09/13 08:41:36;;;;;;;;;;;;;;;17.38;100.00;101044.78;5040606;28;20507;-74
2022/09/13 08:44:22;;;;;;;;;;;;;;;17.44;100.00;101048.84;5057017;28;19928;-74
2022/09/13 08:46:48;;;;;;;;;;;;;;;17.47;100.00;101051.31;5040024;28;20618;-74
2022/09/13 08:49:13;;;;;;;;;;;;;;;17.47;100.00;101050.44;5043723;28;20406;-73
2022/09/13 08:51:46;;;;;;;;;;;;;;;17.46;100.00;101054.09;5057765;28;19928;-74
2022/09/13 08:54:12;;;;;;;;;;;;;;;17.49;100.00;101041.34;5043957;28;19955;-74
2022/09/13 08:56:40;;;;;;;;;;;;;;;17.48;100.00;101053.03;5059593;28;19924;-73
2022/09/13 08:59:11;;;;;;;;;;;;;;;17.54;100.00;101049.03;5043530;28;19925;-73
2022/09/13 09:02:00;;;;;;;;;;;;;;;17.60;100.00;101059.31;5039979;28;19979;-73
2022/09/13 09:04:26;;;;;;;;;;;;;;;17.59;100.00;101054.94;5043501;28;20398;-74
2022/09/13 09:06:58;;;;;;;;;;;;;;;17.59;100.00;101056.75;5044129;28;19924;-74
2022/09/13 09:09:25;;;;;;;;;;;;;;;17.64;100.00;101049.22;5042616;28;19925;-74
2022/09/13 09:11:53;;;;;;;;;;;;;;;17.71;100.00;101055.84;5035172;28;20644;-75
2022/09/13 09:14:31;;;;;;;;;;;;;;;17.76;100.00;101052.88;5031538;28;19976;-73
2022/09/13 09:17:02;;;;;;;;;;;;;;;17.77;100.00;101050.06;5045999;28;20024;-73
2022/09/13 09:19:47;;;;;;;;;;;;;;;17.81;100.00;101044.50;5050086;28;20563;-74
2022/09/13 09:22:15;;;;;;;;;;;;;;;17.83;100.00;101047.91;5048030;28;19935;-76
2022/09/13 09:24:41;;;;;;;;;;;;;;;17.82;100.00;101044.34;5045430;28;20322;-75
2022/09/13 09:27:10;;;;;;;;;;;;;;;17.86;100.00;101048.53;5028490;28;19928;-76
2022/09/13 09:29:37;;;;;;;;;;;;;;;17.93;100.00;101046.28;5046230;28;20047;-75
2022/09/13 09:32:13;;;;;;;;;;;;;;;18.01;100.00;101051.91;5044873;28;19942;-76
2022/09/13 09:34:42;;;;;;;;;;;;;;;18.07;100.00;101052.47;5049091;28;20374;-76
2022/09/13 09:37:11;;;;;;;;;;;;;;;18.07;98.81;101058.66;5047715;28;20019;-75
2022/09/13 09:39:38;;;;;;;;;;;;;;;18.02;100.00;101052.75;5013040;28;19928;-76
2022/09/13 09:42:04;;;;;;;;;;;;;;;17.92;100.00;101047.22;5045657;28;19932;-76
2022/09/13 09:44:32;;;;;;;;;;;;;;;17.92;100.00;101053.44;5043810;28;20398;-75
2022/09/13 09:47:13;;;;;;;;;;;;;;;17.98;100.00;101048.59;5045159;28;19925;-74
2022/09/13 09:52:44;;;;;;;;;;;;;;;17.92;99.72;101058.78;5047237;28;19960;-74
2022/09/13 09:55:16;;;;;;;;;;;;;;;17.89;98.80;101059.03;5046757;28;20466;-74
2022/09/13 09:57:48;;;;;;;;;;;;;;;17.93;96.96;101057.00;5045820;28;19990;-75
2022/09/13 10:00:14;;;;;;;;;;;;;;;17.95;96.14;101056.84;5045802;28;20712;-75
2022/09/13 10:02:42;;;;;;;;;;;;;;;17.89;97.07;101063.53;5050762;28;20059;-75
2022/09/13 10:05:07;;;;;;;;;;;;;;;17.82;97.09;101048.88;5049853;28;19939;-75
2022/09/13 10:07:34;;;;;;;;;;;;;;;17.75;97.64;101054.66;5031053;28;19929;-75
2022/09/13 10:10:23;;;;;;;;;;;;;;;17.73;97.57;101053.94;5048480;28;19956;-75
2022/09/13 10:12:50;;;;;;;;;;;;;;;17.81;96.55;101047.16;5044261;28;20295;-76
2022/09/13 10:15:17;;;;;;;;;;;;;;;17.94;97.57;101049.78;5048601;28;19924;-76
2022/09/13 10:17:43;;;;;;;;;;;;;;;18.05;94.45;101040.00;5030724;28;19940;-75
2022/09/13 10:20:08;;;;;;;;;;;;;;;18.09;95.29;101045.16;5033351;28;20773;-75
2022/09/13 10:22:37;;;;;;;;;;;;;;;17.98;94.21;101040.56;5048130;28;19929;-75
2022/09/13 10:25:12;;;;;;;;;;;;;;;17.90;95.23;101049.16;5049467;28;19924;-75
2022/09/13 10:27:38;;;;;;;;;;;;;;;17.91;93.81;101050.88;5043070;28;20329;-75
2022/09/13 10:30:05;;;;;;;;;;;;;;;18.01;94.69;101059.94;5050330;28;19928;-76
2022/09/13 10:32:31;;;;;;;;;;;;;;;18.11;94.03;101048.56;5046994;28;19936;-75
2022/09/13 10:35:01;;;;;;;;;;;;;;;18.19;94.19;101048.84;5049817;28;20014;-75
2022/09/13 10:37:30;;;;;;;;;;;;;;;18.31;93.36;101053.28;5047753;28;20668;-75
2022/09/13 10:40:07;;;;;;;;;;;;;;;18.42;92.98;101051.66;5047180;28;20422;-75
2022/09/13 10:42:33;;;;;;;;;;;;;;;18.50;92.57;101041.19;5039348;28;20387;-75
2022/09/13 10:45:08;;;;;;;;;;;;;;;18.54;94.40;101053.41;5048963;28;20019;-75
2022/09/13 10:47:36;;;;;;;;;;;;;;;18.55;92.88;101055.09;5027529;28;19928;-75
2022/09/13 10:50:22;;;;;;;;;;;;;;;18.51;91.67;101058.97;5051124;28;20037;-75
2022/09/13 10:52:48;;;;;;;;;;;;;;;18.49;93.20;101052.88;5051302;28;21393;-75
2022/09/13 10:55:17;;;;;;;;;;;;;;;18.45;90.96;101051.41;5054351;28;19947;-75
2022/09/13 10:57:43;;;;;;;;;;;;;;;18.45;93.06;101054.94;5049722;28;20334;-76
2022/09/13 11:00:10;;;;;;;;;;;;;;;18.48;91.26;101048.50;5050592;28;19929;-74
2022/09/13 11:02:54;;;;;;;;;;;;;;;18.52;91.74;101044.59;5052954;28;19964;-78
2022/09/13 11:05:21;;;;;;;;;;;;;;;18.62;91.72;101047.44;5053950;28;19933;-75
2022/09/13 11:07:46;;;;;;;;;;;;;;;18.70;87.02;101050.38;5035349;28;19932;-75
2022/09/13 11:10:29;;;;;;;;;;;;;;;18.79;88.90;101051.50;5052489;28;20388;-73
2022/09/13 11:12:57;;;;;;;;;;;;;;;18.78;87.76;101048.97;5050498;28;19958;-72
2022/09/13 11:15:25;;;;;;;;;;;;;;;18.71;83.91;101049.44;5053580;28;19928;-72
2022/09/13 11:17:54;;;;;;;;;;;;;;;18.63;83.80;101042.94;5051687;28;20387;-73
2022/09/13 11:20:26;;;;;;;;;;;;;;;18.58;85.82;101051.34;5052499;28;19928;-73
2022/09/13 11:22:55;;;;;;;;;;;;;;;18.45;83.74;101051.41;5052146;28;19982;-72
2022/09/13 11:25:21;;;;;;;;;;;;;;;18.37;86.14;101051.13;5050188;28;19920;-73
2022/09/13 11:27:58;;;;;;;;;;;;;;;18.31;86.41;101047.94;5053033;28;19929;-72
2022/09/13 11:30:25;;;;;;;;;;;;;;;18.25;84.86;101045.72;5052476;28;20004;-76
2022/09/13 11:32:50;;;;;;;;;;;;;;;18.25;87.79;101053.75;5049032;28;20045;-72
2022/09/13 11:35:33;;;;;;;;;;;;;;;18.26;85.31;101050.09;5069090;28;19936;-72
2022/09/13 11:38:11;;;;;;;;;;;;;;;18.35;88.12;101058.44;5052474;28;19958;-72
2022/09/13 11:40:46;;;;;;;;;;;;;;;18.45;84.94;101054.94;5050621;28;19932;-73
2022/09/13 11:43:21;;;;;;;;;;;;;;;18.55;85.31;101054.25;5049217;28;19950;-73
2022/09/13 11:45:54;;;;;;;;;;;;;;;18.53;88.37;101054.34;5036697;28;19939;-71
2022/09/13 11:48:55;;;;;;;;;;;;;;;18.47;87.08;101044.13;5016079;28;19924;-72
2022/09/13 11:51:39;;;;;;;;;;;;;;;18.43;85.02;101045.31;5031660;28;19924;-72
2022/09/13 11:54:08;;;;;;;;;;;;;;;18.38;85.68;101042.97;5046879;28;19967;-72
2022/09/13 11:56:41;;;;;;;;;;;;;;;18.40;87.42;101043.72;5050473;28;19950;-73
2022/09/13 11:59:21;;;;;;;;;;;;;;;18.48;87.09;101044.94;5049478;28;20695;-72
2022/09/13 12:01:48;;;;;;;;;;;;;;;18.55;86.03;101046.19;5050767;28;20374;-71
2022/09/13 12:04:24;;;;;;;;;;;;;;;18.59;87.57;101051.19;5052478;28;19929;-72
2022/09/13 12:06:54;;;;;;;;;;;;;;;18.67;88.50;101044.41;5051583;28;19932;-72
2022/09/13 12:09:21;;;;;;;;;;;;;;;18.69;87.22;101042.47;5050441;28;19935;-72
2022/09/13 12:11:53;;;;;;;;;;;;;;;18.67;87.43;101039.03;5051633;28;20285;-72
2022/09/13 12:14:22;;;;;;;;;;;;;;;18.68;88.18;101046.13;5036706;28;19930;-72
2022/09/13 12:16:49;;;;;;;;;;;;;;;18.73;88.08;101046.59;5051026;28;19920;-72
2022/09/13 12:19:16;;;;;;;;;;;;;;;18.71;85.89;101054.78;5052900;28;19970;-71
2022/09/13 12:21:43;;;;;;;;;;;;;;;18.69;87.11;101059.41;5050745;28;19934;-74
2022/09/13 12:24:13;;;;;;;;;;;;;;;18.67;85.03;101052.44;5050798;28;20093;-71
2022/09/13 12:26:50;;;;;;;;;;;;;;;18.60;84.95;101057.44;5046901;28;21922;-71
2022/09/13 12:29:16;;;;;;;;;;;;;;;18.51;83.94;101061.66;5048791;28;19928;-71
2022/09/13 12:31:41;;;;;;;;;;;;;;;18.47;83.49;101060.19;5050948;28;19967;-72
2022/09/13 12:34:08;;;;;;;;;;;;;;;18.49;84.53;101052.88;5052855;28;20327;-71
2022/09/13 12:37:07;;;;;;;;;;;;;;;18.54;86.46;101050.72;5050039;28;20219;-71
2022/09/13 12:39:48;;;;;;;;;;;;;;;18.62;84.30;101049.28;5045783;28;19966;-71